createdAt,value
2022-10-23T00:01:11.009Z,6.22
2022-10-23T00:03:37.695Z,6.00
2022-10-23T00:06:07.805Z,7.63
2022-10-23T00:08:34.433Z,7.68
2022-10-23T00:11:01.152Z,6.15
2022-10-23T00:13:27.724Z,9.13
2022-10-23T00:15:54.365Z,6.40
2022-10-23T00:18:20.929Z,4.88
2022-10-23T00:20:47.536Z,5.80
2022-10-23T00:23:14.099Z,8.13
2022-10-23T00:25:40.724Z,6.07
2022-10-23T00:28:07.301Z,5.30
2022-10-23T00:30:33.908Z,5.95
2022-10-23T00:33:00.416Z,5.45
2022-10-23T00:35:27.118Z,7.28
2022-10-23T00:37:53.699Z,6.38
2022-10-23T00:40:23.597Z,10.10
2022-10-23T00:42:50.134Z,6.28
2022-10-23T00:45:23.114Z,7.78
2022-10-23T00:47:50.275Z,8.15
2022-10-23T00:50:18.247Z,10.93
2022-10-23T00:52:50.713Z,9.00
2022-10-23T00:55:19.565Z,7.80
2022-10-23T00:57:48.146Z,7.30
2022-10-23T01:00:29.164Z,6.70
2022-10-23T01:02:57.215Z,6.93
2022-10-23T01:05:30.595Z,6.60
2022-10-23T01:08:06.992Z,6.60
2022-10-23T01:11:24.259Z,9.05
2022-10-23T01:14:11.771Z,7.57
2022-10-23T01:16:41.425Z,6.43
2022-10-23T01:19:26.194Z,6.32
2022-10-23T01:22:26.250Z,6.00
2022-10-23T01:25:03.298Z,7.55
2022-10-23T01:28:00.285Z,6.45
2022-10-23T01:30:26.958Z,6.28
2022-10-23T01:33:11.454Z,5.60
2022-10-23T01:35:43.514Z,5.75
2022-10-23T01:38:15.135Z,8.15
2022-10-23T01:40:52.825Z,7.68
2022-10-23T01:43:26.765Z,6.57
2022-10-23T01:45:59.444Z,5.88
2022-10-23T01:48:29.272Z,6.13
2022-10-23T01:50:59.074Z,6.45
2022-10-23T01:53:27.752Z,7.38
2022-10-23T01:55:55.747Z,8.60
2022-10-23T01:58:24.940Z,7.88
2022-10-23T02:00:54.158Z,6.72
2022-10-23T02:03:22.669Z,7.57
2022-10-23T02:05:49.371Z,6.77
2022-10-23T02:08:16.087Z,6.50
2022-10-23T02:10:56.954Z,5.63
2022-10-23T02:13:38.769Z,5.00
2022-10-23T02:16:25.353Z,5.15
2022-10-23T02:19:01.070Z,4.82
2022-10-23T02:21:50.856Z,5.00
2022-10-23T02:24:23.864Z,5.10
2022-10-23T02:26:55.770Z,6.75
2022-10-23T02:29:33.757Z,4.50
2022-10-23T02:32:01.610Z,4.97
2022-10-23T02:34:28.231Z,4.93
2022-10-23T02:36:54.814Z,5.40
2022-10-23T02:39:24.705Z,5.75
2022-10-23T02:42:03.239Z,6.53
2022-10-23T02:44:43.253Z,5.03
2022-10-23T02:47:28.847Z,5.88
2022-10-23T02:50:01.495Z,9.77
2022-10-23T02:53:05.401Z,7.72
2022-10-23T02:55:34.817Z,6.57
2022-10-23T03:00:39.118Z,8.43
2022-10-23T03:03:19.701Z,7.13
2022-10-23T03:05:46.460Z,5.30
2022-10-23T03:08:14.491Z,5.25
2022-10-23T03:10:42.484Z,6.68
2022-10-23T03:13:10.643Z,6.63
2022-10-23T03:15:37.702Z,7.50
2022-10-23T03:18:04.457Z,8.13
2022-10-23T03:20:31.162Z,7.55
2022-10-23T03:22:57.736Z,5.30
2022-10-23T03:25:24.306Z,6.63
2022-10-23T03:27:50.944Z,5.80
2022-10-23T03:30:17.965Z,5.18
2022-10-23T03:32:44.749Z,8.60
2022-10-23T03:35:11.529Z,5.22
2022-10-23T03:37:38.176Z,5.85
2022-10-23T03:40:05.722Z,5.03
2022-10-23T03:42:32.322Z,4.22
2022-10-23T03:44:58.892Z,5.07
2022-10-23T03:47:25.609Z,4.70
2022-10-23T03:49:52.237Z,6.88
2022-10-23T03:52:18.897Z,6.25
2022-10-23T03:54:45.497Z,5.93
2022-10-23T03:57:12.403Z,6.03
2022-10-23T03:59:39.046Z,6.43
2022-10-23T04:02:05.673Z,5.10
2022-10-23T04:04:32.270Z,4.55
2022-10-23T04:06:58.966Z,4.32
2022-10-23T04:09:25.738Z,6.82
2022-10-23T04:11:52.282Z,7.07
2022-10-23T04:14:18.964Z,13.23
2022-10-23T04:16:45.566Z,5.70
2022-10-23T04:19:12.134Z,8.15
2022-10-23T04:21:38.755Z,7.90
2022-10-23T04:24:05.846Z,6.80
2022-10-23T04:26:32.456Z,7.72
2022-10-23T04:28:59.105Z,7.60
2022-10-23T04:31:26.029Z,5.47
2022-10-23T04:33:52.690Z,6.28
2022-10-23T09:23:15.672Z,6.53
2022-10-23T09:25:43.110Z,5.45
2022-10-23T09:28:20.502Z,4.53
2022-10-23T09:30:48.779Z,3.65
2022-10-23T09:33:24.565Z,4.30
2022-10-23T09:36:03.528Z,4.03
2022-10-23T09:38:36.143Z,3.20
2022-10-23T09:41:23.043Z,3.08
2022-10-23T09:44:07.893Z,3.30
2022-10-23T09:46:46.763Z,2.17
2022-10-23T09:49:27.254Z,3.55
2022-10-23T09:52:04.671Z,2.60
2022-10-23T09:54:34.897Z,2.15
2022-10-23T09:57:21.158Z,2.03
2022-10-23T09:59:54.456Z,2.25
2022-10-23T10:02:36.261Z,2.00
2022-10-23T10:05:26.758Z,2.05
2022-10-23T10:08:25.728Z,1.60
2022-10-23T10:11:00.341Z,1.83
2022-10-23T10:13:33.161Z,1.52
2022-10-23T10:16:06.977Z,1.70
2022-10-23T10:18:40.986Z,1.55
2022-10-23T10:21:22.458Z,1.25
2022-10-23T10:23:56.023Z,1.27
2022-10-23T10:26:35.096Z,1.38
2022-10-23T10:29:30.978Z,1.35
2022-10-23T10:31:57.556Z,1.30
2022-10-23T10:34:43.515Z,1.50
2022-10-23T10:37:20.710Z,1.52
2022-10-23T10:39:59.174Z,1.65
2022-10-23T10:42:59.127Z,1.30
2022-10-23T10:46:06.081Z,1.65
2022-10-23T10:48:47.644Z,1.30
2022-10-23T10:51:34.757Z,1.40
2022-10-23T10:54:16.175Z,0.98
2022-10-23T10:56:45.772Z,1.20
2022-10-23T10:59:16.545Z,1.08
2022-10-23T11:01:53.624Z,1.40
2022-10-23T11:04:32.839Z,1.92
2022-10-23T11:07:05.721Z,1.73
2022-10-23T11:09:32.426Z,1.20
2022-10-23T11:11:59.476Z,1.30
2022-10-23T11:14:29.286Z,1.10
2022-10-23T11:17:05.343Z,1.33
2022-10-23T11:19:49.393Z,1.50
2022-10-23T11:22:32.274Z,1.27
2022-10-23T11:25:20.957Z,1.10
2022-10-23T11:28:18.767Z,0.90
2022-10-23T11:30:59.841Z,1.00
2022-10-23T11:33:54.644Z,1.42
2022-10-23T11:36:35.792Z,1.00
2022-10-23T11:39:22.881Z,1.00
2022-10-23T11:42:13.401Z,1.10
2022-10-23T11:44:46.293Z,1.10
2022-10-23T11:47:40.423Z,1.27
2022-10-23T11:50:07.430Z,1.17
2022-10-23T11:52:45.442Z,0.80
2022-10-23T11:55:30.080Z,1.10
2022-10-23T11:58:21.133Z,0.90
2022-10-23T12:01:16.853Z,1.02
2022-10-23T12:03:54.812Z,0.95
2022-10-23T12:06:39.784Z,0.80
2022-10-23T12:09:22.638Z,1.17
2022-10-23T12:12:02.046Z,0.88
2022-10-23T12:14:39.147Z,1.10
2022-10-23T12:17:24.730Z,0.80
2022-10-23T12:20:01.457Z,1.05
2022-10-23T12:22:41.758Z,3.42
2022-10-23T12:25:17.829Z,3.85
2022-10-23T12:27:47.397Z,1.10
2022-10-23T12:30:25.050Z,1.10
2022-10-23T12:33:19.197Z,2.15
2022-10-23T12:36:23.822Z,1.23
2022-10-23T12:38:50.699Z,1.40
2022-10-23T12:41:24.364Z,1.10
2022-10-23T12:44:04.249Z,1.20
2022-10-23T12:46:32.937Z,0.80
2022-10-23T12:49:01.507Z,1.30
2022-10-23T12:51:34.001Z,1.30
2022-10-23T12:54:02.451Z,1.20
2022-10-23T12:56:35.590Z,0.90
2022-10-23T12:59:04.049Z,1.10
2022-10-23T13:01:33.353Z,1.10
2022-10-23T13:06:35.080Z,1.10
2022-10-23T13:09:03.763Z,0.80
2022-10-23T13:11:32.147Z,1.17
2022-10-23T13:13:58.883Z,1.50
2022-10-23T13:16:27.161Z,10.18
2022-10-23T13:18:54.569Z,1.00
2022-10-23T13:21:27.338Z,1.20
2022-10-23T13:23:54.549Z,1.38
2022-10-23T13:26:45.280Z,1.10
2022-10-23T13:29:22.900Z,1.30
2022-10-23T13:31:50.453Z,1.30
2022-10-23T13:34:19.141Z,1.20
2022-10-23T13:37:01.297Z,1.00
2022-10-23T13:39:33.097Z,1.58
2022-10-23T13:42:13.308Z,1.20
2022-10-23T13:44:41.333Z,1.30
2022-10-23T13:47:13.441Z,1.23
2022-10-23T13:49:40.295Z,1.25
2022-10-23T13:52:11.172Z,1.33
2022-10-23T13:54:38.086Z,1.50
2022-10-23T13:57:09.570Z,1.50
2022-10-23T13:59:36.218Z,1.25
2022-10-23T14:02:05.252Z,2.30
2022-10-23T14:04:32.217Z,1.90
2022-10-23T14:06:58.892Z,1.95
2022-10-23T14:09:25.932Z,1.90
2022-10-23T14:11:52.693Z,1.80
2022-10-23T14:14:19.381Z,1.70
2022-10-23T14:16:46.024Z,1.58
2022-10-23T14:19:12.789Z,1.48
2022-10-23T14:21:39.504Z,1.40
2022-10-23T14:24:06.545Z,1.50
2022-10-23T14:26:34.345Z,1.90
2022-10-23T14:29:05.082Z,1.70
2022-10-23T14:31:35.781Z,3.13
2022-10-23T14:34:02.643Z,4.57
2022-10-23T14:36:38.568Z,3.08
2022-10-23T14:39:16.298Z,2.25
2022-10-23T14:41:43.030Z,2.00
2022-10-23T14:44:09.881Z,2.03
2022-10-23T14:46:38.486Z,1.20
2022-10-23T14:49:05.537Z,2.00
2022-10-23T14:51:32.339Z,1.48
2022-10-23T14:54:04.357Z,1.70
2022-10-23T14:56:33.711Z,1.70
2022-10-23T15:01:31.889Z,1.85
2022-10-23T15:03:58.858Z,2.20
2022-10-23T15:06:25.956Z,2.00
2022-10-23T15:08:56.924Z,2.30
2022-10-23T15:11:25.252Z,1.67
2022-10-23T15:13:53.028Z,2.47
2022-10-23T15:16:19.723Z,4.80
2022-10-23T15:18:46.776Z,4.47
2022-10-23T15:21:14.238Z,2.70
2022-10-23T15:23:43.542Z,4.03
2022-10-23T15:28:38.879Z,2.00
2022-10-23T15:31:06.465Z,1.85
2022-10-23T15:33:33.162Z,2.40
2022-10-23T15:35:59.865Z,2.60
2022-10-23T15:38:26.628Z,4.38
2022-10-23T15:41:04.040Z,3.55
2022-10-23T15:43:30.753Z,3.88
2022-10-23T15:45:57.429Z,4.80
2022-10-23T15:48:24.486Z,5.05
2022-10-23T15:50:51.322Z,4.90
2022-10-23T15:53:18.061Z,4.07
2022-10-23T15:55:44.832Z,4.25
2022-10-23T15:58:11.634Z,3.85
2022-10-23T16:00:39.707Z,3.95
2022-10-23T16:03:06.444Z,3.97
2022-10-23T16:05:33.170Z,3.25
2022-10-23T16:08:00.159Z,2.80
2022-10-23T16:10:27.171Z,2.47
2022-10-23T16:12:53.939Z,2.70
2022-10-23T16:15:20.765Z,2.60
2022-10-23T16:17:49.054Z,2.60
2022-10-23T16:20:16.389Z,4.80
2022-10-23T16:22:44.951Z,4.70
2022-10-23T16:25:12.112Z,6.68
2022-10-23T16:27:39.279Z,8.40
2022-10-23T16:30:09.038Z,7.85
2022-10-23T16:32:36.544Z,5.78
2022-10-23T16:35:03.207Z,6.57
2022-10-23T16:37:29.768Z,5.47
2022-10-23T16:39:56.427Z,4.80
2022-10-23T16:42:23.770Z,4.55
2022-10-23T16:44:50.558Z,3.00
2022-10-23T16:47:17.405Z,4.13
2022-10-23T16:49:44.119Z,4.13
2022-10-23T16:52:10.700Z,3.10
2022-10-23T16:54:37.373Z,3.30
2022-10-23T16:57:04.064Z,3.50
2022-10-23T16:59:30.607Z,3.83
2022-10-23T17:01:57.337Z,3.85
2022-10-23T17:04:24.085Z,3.65
2022-10-23T17:06:50.690Z,3.83
2022-10-23T17:09:19.343Z,4.00
2022-10-23T17:11:46.403Z,4.40
2022-10-23T17:14:18.667Z,8.63
2022-10-23T17:16:46.652Z,6.65
2022-10-23T17:19:20.720Z,5.70
2022-10-23T17:22:00.329Z,5.30
2022-10-23T17:24:27.135Z,4.30
2022-10-23T17:26:54.152Z,3.05
2022-10-23T17:29:21.020Z,2.97
2022-10-23T17:31:50.239Z,5.25
2022-10-23T17:34:20.871Z,2.75
2022-10-23T17:36:50.225Z,2.17
2022-10-23T17:39:19.985Z,2.22
2022-10-23T17:41:47.016Z,1.70
2022-10-23T17:44:13.573Z,2.05
2022-10-23T17:46:40.478Z,2.33
2022-10-23T17:49:07.897Z,2.33
2022-10-23T17:51:35.495Z,1.67
2022-10-23T17:54:06.755Z,1.90
2022-10-23T17:56:34.887Z,1.92
2022-10-23T17:59:05.663Z,2.15
2022-10-23T18:01:32.484Z,1.90
2022-10-23T18:04:01.715Z,2.13
2022-10-23T18:06:32.225Z,2.28
2022-10-23T18:09:00.437Z,2.42
2022-10-23T18:11:33.235Z,2.08
2022-10-23T18:14:00.948Z,2.00
2022-10-23T18:16:27.771Z,1.73
2022-10-23T18:18:55.109Z,2.22
2022-10-23T18:21:24.028Z,1.63
2022-10-23T18:23:51.676Z,1.70
2022-10-23T18:26:27.289Z,2.08
2022-10-23T18:28:57.414Z,1.88
2022-10-23T18:31:27.077Z,2.45
2022-10-23T18:33:58.903Z,1.90
2022-10-23T18:36:27.754Z,1.88
2022-10-23T18:41:42.888Z,1.77
2022-10-23T18:44:11.125Z,2.10
2022-10-23T18:46:37.793Z,2.40
2022-10-23T18:49:05.411Z,2.00
2022-10-23T18:51:34.778Z,2.20
2022-10-23T18:56:29.797Z,3.58
2022-10-23T18:58:59.025Z,3.03
2022-10-23T19:01:27.246Z,2.88
2022-10-23T19:06:26.630Z,2.75
2022-10-23T19:08:54.068Z,2.20
2022-10-23T19:11:23.119Z,1.90
2022-10-23T19:13:49.725Z,1.80
2022-10-23T19:16:26.025Z,2.00
2022-10-23T19:18:56.872Z,2.10
2022-10-23T19:21:31.134Z,1.83
2022-10-23T19:24:04.402Z,1.90
2022-10-23T19:26:34.355Z,1.90
2022-10-23T19:29:01.542Z,2.00
2022-10-23T19:31:28.217Z,1.83
2022-10-23T19:33:54.853Z,2.40
2022-10-23T19:36:23.562Z,2.28
2022-10-23T19:38:50.546Z,2.40
2022-10-23T19:41:18.396Z,2.60
2022-10-23T19:43:44.965Z,2.50
2022-10-23T19:46:12.359Z,2.67
2022-10-23T19:48:42.579Z,2.92
2022-10-23T19:51:09.565Z,2.67
2022-10-23T19:53:36.387Z,2.90
2022-10-23T19:56:04.820Z,3.28
2022-10-23T19:58:31.414Z,3.55
2022-10-23T20:00:58.030Z,2.88
2022-10-23T20:03:24.650Z,3.38
2022-10-23T20:05:51.268Z,4.03
2022-10-23T20:08:18.126Z,3.50
2022-10-23T20:10:46.629Z,3.25
2022-10-23T20:13:21.232Z,3.13
2022-10-23T20:15:48.149Z,3.10
2022-10-23T20:18:14.690Z,3.50
2022-10-23T20:20:42.383Z,3.20
2022-10-23T20:23:09.500Z,4.40
2022-10-23T20:25:36.273Z,3.47
2022-10-23T20:28:03.418Z,4.88
2022-10-23T20:30:30.147Z,4.55
2022-10-23T20:32:56.762Z,4.70
2022-10-23T20:35:23.860Z,5.03
2022-10-23T20:37:50.573Z,4.47
2022-10-23T20:40:17.269Z,5.80
2022-10-23T20:42:43.888Z,6.18
2022-10-23T20:45:10.842Z,5.18
2022-10-23T20:47:37.405Z,4.18
2022-10-23T20:50:04.298Z,4.65
2022-10-23T20:54:59.698Z,3.50
2022-10-23T20:57:26.285Z,4.10
2022-10-23T20:59:53.268Z,4.20
2022-10-23T21:02:19.914Z,3.55
2022-10-23T21:04:47.682Z,4.38
2022-10-23T21:07:14.292Z,3.72
2022-10-23T21:09:40.895Z,4.40
2022-10-23T21:12:08.381Z,4.10
2022-10-23T21:14:35.377Z,3.28
2022-10-23T21:17:01.983Z,3.22
2022-10-23T21:19:28.566Z,4.78
2022-10-23T21:21:55.402Z,3.67
2022-10-23T21:24:22.145Z,3.70
2022-10-23T21:26:48.830Z,3.30
2022-10-23T21:29:19.873Z,3.50
2022-10-23T21:31:58.829Z,3.65
2022-10-23T21:34:26.681Z,3.22
2022-10-23T21:37:12.378Z,2.58
2022-10-23T21:39:40.131Z,3.05
2022-10-23T21:42:06.811Z,3.13
2022-10-23T21:44:33.542Z,3.00
2022-10-23T21:47:00.130Z,2.97
2022-10-23T21:49:26.777Z,3.30
2022-10-23T21:51:55.115Z,3.30
2022-10-23T21:54:22.115Z,3.43
2022-10-23T21:56:50.776Z,2.80
2022-10-23T21:59:20.162Z,2.77
2022-10-23T22:04:17.183Z,3.40
2022-10-23T22:09:16.659Z,3.47
2022-10-23T22:11:43.431Z,3.60
2022-10-23T22:14:10.144Z,3.38
2022-10-23T22:16:37.161Z,2.80
2022-10-23T22:19:04.035Z,2.92
2022-10-23T22:21:31.667Z,2.97
2022-10-23T22:24:00.586Z,2.97
2022-10-23T22:26:36.508Z,3.53
2022-10-23T22:29:09.085Z,3.88
2022-10-23T22:31:36.538Z,5.45
2022-10-23T22:34:18.505Z,3.28
2022-10-23T22:36:52.879Z,4.40
2022-10-23T22:39:19.460Z,3.55
2022-10-23T22:41:47.580Z,4.03
2022-10-23T22:44:15.261Z,3.95
2022-10-23T22:46:42.738Z,4.18
2022-10-23T22:49:09.630Z,3.60
2022-10-23T22:51:37.991Z,4.00
2022-10-23T22:54:04.644Z,3.47
2022-10-23T22:56:32.404Z,3.58
2022-10-23T22:58:59.060Z,3.33
2022-10-23T23:01:38.471Z,3.63
2022-10-23T23:06:51.530Z,4.18
2022-10-23T23:09:18.837Z,4.03
2022-10-23T23:11:52.078Z,4.07
2022-10-23T23:14:23.092Z,5.32
2022-10-23T23:16:51.455Z,4.40
2022-10-23T23:19:18.086Z,4.20
2022-10-23T23:21:44.652Z,3.30
2022-10-23T23:24:12.152Z,3.80
2022-10-23T23:26:38.991Z,4.18
2022-10-23T23:29:05.719Z,3.60
2022-10-23T23:31:32.448Z,4.50
2022-10-23T23:33:59.132Z,3.40
2022-10-23T23:36:27.977Z,4.07
2022-10-23T23:38:57.073Z,3.80
2022-10-23T23:41:24.834Z,3.50
2022-10-23T23:43:54.046Z,3.60
2022-10-23T23:46:20.882Z,3.20
2022-10-23T23:48:49.500Z,3.17
2022-10-23T23:51:18.859Z,3.27
2022-10-23T23:53:45.499Z,3.40
2022-10-23T23:56:12.137Z,3.97
2022-10-23T23:58:39.081Z,3.67
